sensor_id;sensor_type;location;lat;lon;timestamp;pressure;altitude;pressure_sealevel;temperature;humidity
77351;BME280;66420;50.246;14.320;2023-07-24T00:00:38;98906.91;;;20.33;51.91
77351;BME280;66420;50.246;14.320;2023-07-24T00:03:24;98912.91;;;20.46;50.20
77351;BME280;66420;50.246;14.320;2023-07-24T00:06:09;98907.78;;;20.52;50.16
77351;BME280;66420;50.246;14.320;2023-07-24T00:08:53;98897.84;;;20.51;50.88
77351;BME280;66420;50.246;14.320;2023-07-24T00:11:38;98908.59;;;20.52;50.57
77351;BME280;66420;50.246;14.320;2023-07-24T00:14:22;98901.81;;;20.50;50.53
77351;BME280;66420;50.246;14.320;2023-07-24T00:17:07;98888.69;;;20.47;52.11
77351;BME280;66420;50.246;14.320;2023-07-24T00:19:52;98895.06;;;20.47;52.59
77351;BME280;66420;50.246;14.320;2023-07-24T00:22:37;98889.50;;;20.44;52.58
77351;BME280;66420;50.246;14.320;2023-07-24T00:25:21;98883.09;;;20.40;52.04
77351;BME280;66420;50.246;14.320;2023-07-24T00:28:06;98891.03;;;20.38;53.13
77351;BME280;66420;50.246;14.320;2023-07-24T00:30:51;98890.63;;;20.35;52.56
77351;BME280;66420;50.246;14.320;2023-07-24T00:33:35;98882.28;;;20.32;52.58
77351;BME280;66420;50.246;14.320;2023-07-24T00:36:20;98888.63;;;20.32;53.78
77351;BME280;66420;50.246;14.320;2023-07-24T00:39:04;98871.16;;;20.32;52.85
77351;BME280;66420;50.246;14.320;2023-07-24T00:41:49;98879.09;;;20.30;54.55
77351;BME280;66420;50.246;14.320;2023-07-24T00:44:33;98881.41;;;20.21;54.74
77351;BME280;66420;50.246;14.320;2023-07-24T00:47:18;98880.19;;;20.18;55.73
77351;BME280;66420;50.246;14.320;2023-07-24T00:50:03;98886.94;;;20.17;54.70
77351;BME280;66420;50.246;14.320;2023-07-24T00:52:49;98889.31;;;20.12;55.12
77351;BME280;66420;50.246;14.320;2023-07-24T00:55:33;98892.44;;;20.07;54.98
77351;BME280;66420;50.246;14.320;2023-07-24T00:58:19;98880.09;;;20.01;53.59
77351;BME280;66420;50.246;14.320;2023-07-24T01:01:04;98882.44;;;19.99;54.18
77351;BME280;66420;50.246;14.320;2023-07-24T01:03:49;98877.69;;;19.96;54.65
77351;BME280;66420;50.246;14.320;2023-07-24T01:06:34;98890.78;;;19.95;53.89
77351;BME280;66420;50.246;14.320;2023-07-24T01:09:18;98894.78;;;20.01;54.21
77351;BME280;66420;50.246;14.320;2023-07-24T01:12:13;98897.09;;;19.92;53.80
77351;BME280;66420;50.246;14.320;2023-07-24T01:15:26;98899.47;;;19.90;54.26
77351;BME280;66420;50.246;14.320;2023-07-24T01:18:14;98900.25;;;19.87;54.68
77351;BME280;66420;50.246;14.320;2023-07-24T01:21:02;98904.19;;;19.82;54.95
77351;BME280;66420;50.246;14.320;2023-07-24T01:24:24;98898.59;;;19.79;54.54
77351;BME280;66420;50.246;14.320;2023-07-24T01:27:07;98902.91;;;19.73;53.38
77351;BME280;66420;50.246;14.320;2023-07-24T01:29:52;98904.09;;;19.72;53.15
77351;BME280;66420;50.246;14.320;2023-07-24T01:32:37;98899.34;;;19.72;53.94
77351;BME280;66420;50.246;14.320;2023-07-24T01:35:22;98891.38;;;19.71;53.83
77351;BME280;66420;50.246;14.320;2023-07-24T01:38:08;98893.78;;;19.69;54.69
77351;BME280;66420;50.246;14.320;2023-07-24T01:40:56;98893.75;;;19.65;54.38
77351;BME280;66420;50.246;14.320;2023-07-24T01:43:42;98891.34;;;19.64;53.80
77351;BME280;66420;50.246;14.320;2023-07-24T01:46:27;98877.81;;;19.59;55.18
77351;BME280;66420;50.246;14.320;2023-07-24T01:49:12;98876.19;;;19.54;54.91
77351;BME280;66420;50.246;14.320;2023-07-24T01:51:56;98871.81;;;19.50;55.44
77351;BME280;66420;50.246;14.320;2023-07-24T01:54:42;98873.34;;;19.43;56.02
77351;BME280;66420;50.246;14.320;2023-07-24T01:57:26;98876.03;;;19.36;56.99
77351;BME280;66420;50.246;14.320;2023-07-24T02:00:11;98862.09;;;19.29;55.87
77351;BME280;66420;50.246;14.320;2023-07-24T02:02:56;98854.53;;;19.26;56.72
77351;BME280;66420;50.246;14.320;2023-07-24T02:05:41;98851.31;;;19.21;56.42
77351;BME280;66420;50.246;14.320;2023-07-24T02:08:26;98849.69;;;19.16;56.58
77351;BME280;66420;50.246;14.320;2023-07-24T02:11:10;98838.53;;;19.09;56.60
77351;BME280;66420;50.246;14.320;2023-07-24T02:13:55;98844.84;;;19.06;57.28
77351;BME280;66420;50.246;14.320;2023-07-24T02:16:39;98851.94;;;19.03;56.97
77351;BME280;66420;50.246;14.320;2023-07-24T02:19:24;98859.88;;;19.01;56.28
77351;BME280;66420;50.246;14.320;2023-07-24T02:22:08;98860.63;;;19.02;55.72
77351;BME280;66420;50.246;14.320;2023-07-24T02:24:53;98874.91;;;19.00;55.31
77351;BME280;66420;50.246;14.320;2023-07-24T02:27:37;98874.91;;;19.00;54.94
77351;BME280;66420;50.246;14.320;2023-07-24T02:30:22;98879.66;;;19.00;55.50
77351;BME280;66420;50.246;14.320;2023-07-24T02:33:07;98884.78;;;18.98;55.05
77351;BME280;66420;50.246;14.320;2023-07-24T02:35:52;98897.13;;;19.04;53.97
77351;BME280;66420;50.246;14.320;2023-07-24T02:38:37;98887.63;;;19.05;54.01
77351;BME280;66420;50.246;14.320;2023-07-24T02:41:21;98892.84;;;19.10;53.44
77351;BME280;66420;50.246;14.320;2023-07-24T02:44:06;98893.25;;;19.12;53.19
77351;BME280;66420;50.246;14.320;2023-07-24T02:46:50;98888.50;;;19.16;52.37
77351;BME280;66420;50.246;14.320;2023-07-24T02:49:35;98878.25;;;19.20;52.57
77351;BME280;66420;50.246;14.320;2023-07-24T02:52:20;98886.19;;;19.22;52.39
77351;BME280;66420;50.246;14.320;2023-07-24T02:55:05;98897.28;;;19.18;52.67
77351;BME280;66420;50.246;14.320;2023-07-24T02:57:50;98888.50;;;19.16;52.54
77351;BME280;66420;50.246;14.320;2023-07-24T03:00:35;98888.94;;;19.18;52.51
77351;BME280;66420;50.246;14.320;2023-07-24T03:03:20;98877.47;;;19.20;52.21
77351;BME280;66420;50.246;14.320;2023-07-24T03:06:04;98878.66;;;19.19;52.17
77351;BME280;66420;50.246;14.320;2023-07-24T03:08:49;98875.47;;;19.20;52.40
77351;BME280;66420;50.246;14.320;2023-07-24T03:11:33;98885.81;;;19.23;52.46
77351;BME280;66420;50.246;14.320;2023-07-24T03:14:18;98878.75;;;19.29;52.43
77351;BME280;66420;50.246;14.320;2023-07-24T03:17:03;98874.41;;;19.32;51.55
77351;BME280;66420;50.246;14.320;2023-07-24T03:19:48;98880.69;;;19.25;52.12
77351;BME280;66420;50.246;14.320;2023-07-24T03:22:33;98876.69;;;19.23;52.20
77351;BME280;66420;50.246;14.320;2023-07-24T03:25:18;98863.63;;;19.23;51.72
77351;BME280;66420;50.246;14.320;2023-07-24T03:28:03;98872.78;;;19.27;52.31
77351;BME280;66420;50.246;14.320;2023-07-24T03:30:48;98868.81;;;19.25;52.74
77351;BME280;66420;50.246;14.320;2023-07-24T03:33:33;98871.25;;;19.33;51.39
77351;BME280;66420;50.246;14.320;2023-07-24T03:36:17;98865.31;;;19.35;52.73
77351;BME280;66420;50.246;14.320;2023-07-24T03:39:02;98861.38;;;19.39;52.42
77351;BME280;66420;50.246;14.320;2023-07-24T03:41:47;98863.47;;;19.46;52.52
77351;BME280;66420;50.246;14.320;2023-07-24T03:44:32;98854.00;;;19.54;51.89
77351;BME280;66420;50.246;14.320;2023-07-24T03:47:16;98844.47;;;19.52;51.95
77351;BME280;66420;50.246;14.320;2023-07-24T03:50:01;98840.94;;;19.58;51.92
77351;BME280;66420;50.246;14.320;2023-07-24T03:52:45;98836.66;;;19.68;52.84
77351;BME280;66420;50.246;14.320;2023-07-24T03:55:30;98838.31;;;19.79;52.38
77351;BME280;66420;50.246;14.320;2023-07-24T03:58:15;98839.50;;;19.82;53.34
77351;BME280;66420;50.246;14.320;2023-07-24T04:00:59;98817.75;;;19.91;53.26
77351;BME280;66420;50.246;14.320;2023-07-24T04:03:44;98833.63;;;19.94;54.27
77351;BME280;66420;50.246;14.320;2023-07-24T04:06:29;98823.34;;;19.98;55.13
77351;BME280;66420;50.246;14.320;2023-07-24T04:09:13;98817.38;;;19.96;55.25
77351;BME280;66420;50.246;14.320;2023-07-24T04:12:01;98815.78;;;19.95;56.23
77351;BME280;66420;50.246;14.320;2023-07-24T04:14:45;98812.56;;;19.89;57.09
77351;BME280;66420;50.246;14.320;2023-07-24T04:17:29;98819.28;;;19.85;58.65
77351;BME280;66420;50.246;14.320;2023-07-24T04:20:15;98828.03;;;19.87;59.18
77351;BME280;66420;50.246;14.320;2023-07-24T04:22:59;98812.97;;;19.88;59.56
77351;BME280;66420;50.246;14.320;2023-07-24T04:25:44;98807.44;;;19.88;59.74
77351;BME280;66420;50.246;14.320;2023-07-24T04:28:28;98801.06;;;19.84;60.76
77351;BME280;66420;50.246;14.320;2023-07-24T04:31:13;98792.31;;;19.85;60.77
77351;BME280;66420;50.246;14.320;2023-07-24T04:33:57;98784.34;;;19.80;61.25
77351;BME280;66420;50.246;14.320;2023-07-24T04:36:42;98775.63;;;19.75;61.98
77351;BME280;66420;50.246;14.320;2023-07-24T04:39:26;98778.03;;;19.83;62.05
77351;BME280;66420;50.246;14.320;2023-07-24T04:42:11;98786.34;;;19.80;62.78
77351;BME280;66420;50.246;14.320;2023-07-24T04:44:56;98777.25;;;19.83;62.18
77351;BME280;66420;50.246;14.320;2023-07-24T04:47:41;98784.00;;;19.85;62.38
77351;BME280;66420;50.246;14.320;2023-07-24T04:50:26;98797.84;;;19.82;62.84
77351;BME280;66420;50.246;14.320;2023-07-24T04:53:11;98792.31;;;19.82;63.12
77351;BME280;66420;50.246;14.320;2023-07-24T04:55:55;98796.25;;;19.81;63.20
77351;BME280;66420;50.246;14.320;2023-07-24T04:58:40;98796.69;;;19.83;63.59
77351;BME280;66420;50.246;14.320;2023-07-24T05:01:24;98800.28;;;19.87;62.64
77351;BME280;66420;50.246;14.320;2023-07-24T05:04:09;98791.16;;;19.93;62.54
77351;BME280;66420;50.246;14.320;2023-07-24T05:06:53;98791.56;;;19.92;63.40
77351;BME280;66420;50.246;14.320;2023-07-24T05:09:38;98789.97;;;19.91;64.09
77351;BME280;66420;50.246;14.320;2023-07-24T05:12:23;98786.81;;;19.96;63.26
77351;BME280;66420;50.246;14.320;2023-07-24T05:15:08;98784.47;;;19.98;64.59
77351;BME280;66420;50.246;14.320;2023-07-24T05:17:52;98787.63;;;20.00;63.31
77351;BME280;66420;50.246;14.320;2023-07-24T05:20:37;98777.34;;;20.04;62.89
77351;BME280;66420;50.246;14.320;2023-07-24T05:23:22;98778.94;;;20.05;62.74
77351;BME280;66420;50.246;14.320;2023-07-24T05:26:07;98790.84;;;20.06;63.04
77351;BME280;66420;50.246;14.320;2023-07-24T05:28:52;98788.84;;;20.03;63.36
77351;BME280;66420;50.246;14.320;2023-07-24T05:31:37;98778.94;;;20.09;63.41
77351;BME280;66420;50.246;14.320;2023-07-24T05:34:21;98787.28;;;20.12;62.64
77351;BME280;66420;50.246;14.320;2023-07-24T05:37:06;98783.75;;;20.15;62.28
77351;BME280;66420;50.246;14.320;2023-07-24T05:39:51;98780.97;;;20.19;63.97
77351;BME280;66420;50.246;14.320;2023-07-24T05:42:35;98780.59;;;20.24;63.57
77351;BME280;66420;50.246;14.320;2023-07-24T05:45:27;98774.31;;;20.38;63.27
77351;BME280;66420;50.246;14.320;2023-07-24T05:48:11;98778.69;;;20.46;62.95
77351;BME280;66420;50.246;14.320;2023-07-24T05:50:56;98785.47;;;20.55;62.00
77351;BME280;66420;50.246;14.320;2023-07-24T05:53:40;98788.66;;;20.61;61.55
77351;BME280;66420;50.246;14.320;2023-07-24T05:56:25;98781.13;;;20.72;60.88
77351;BME280;66420;50.246;14.320;2023-07-24T05:59:10;98781.56;;;20.88;59.70
77351;BME280;66420;50.246;14.320;2023-07-24T06:01:54;98788.34;;;20.94;59.20
77351;BME280;66420;50.246;14.320;2023-07-24T06:04:39;98795.88;;;20.97;59.09
77351;BME280;66420;50.246;14.320;2023-07-24T06:07:23;98779.19;;;20.97;59.01
77351;BME280;66420;50.246;14.320;2023-07-24T06:10:08;98756.94;;;20.97;58.44
77351;BME280;66420;50.246;14.320;2023-07-24T06:12:53;98768.06;;;20.94;59.34
77351;BME280;66420;50.246;14.320;2023-07-24T06:15:37;98777.97;;;20.91;59.93
77351;BME280;66420;50.246;14.320;2023-07-24T06:18:22;98786.34;;;20.84;60.96
77351;BME280;66420;50.246;14.320;2023-07-24T06:21:07;98808.94;;;20.61;63.31
77351;BME280;66420;50.246;14.320;2023-07-24T06:23:51;98820.41;;;20.46;61.62
77351;BME280;66420;50.246;14.320;2023-07-24T06:26:36;98829.84;;;20.30;63.83
77351;BME280;66420;50.246;14.320;2023-07-24T06:29:20;98812.25;;;20.05;66.82
77351;BME280;66420;50.246;14.320;2023-07-24T06:32:06;98801.63;;;19.49;70.41
77351;BME280;66420;50.246;14.320;2023-07-24T06:34:51;98793.44;;;19.19;71.75
77351;BME280;66420;50.246;14.320;2023-07-24T06:37:36;98785.38;;;19.03;73.91
77351;BME280;66420;50.246;14.320;2023-07-24T06:40:20;98768.72;;;19.00;74.81
77351;BME280;66420;50.246;14.320;2023-07-24T06:43:05;98768.66;;;18.93;76.27
77351;BME280;66420;50.246;14.320;2023-07-24T06:45:49;98780.59;;;18.97;75.96
77351;BME280;66420;50.246;14.320;2023-07-24T06:48:34;98781.69;;;18.89;76.45
77351;BME280;66420;50.246;14.320;2023-07-24T06:51:18;98759.09;;;18.87;77.22
77351;BME280;66420;50.246;14.320;2023-07-24T06:54:03;98725.06;;;18.90;75.62
77351;BME280;66420;50.246;14.320;2023-07-24T06:56:48;98753.63;;;18.97;77.87
77351;BME280;66420;50.246;14.320;2023-07-24T06:59:33;98762.22;;;18.82;80.16
77351;BME280;66420;50.246;14.320;2023-07-24T07:02:18;98763.47;;;18.88;78.37
77351;BME280;66420;50.246;14.320;2023-07-24T07:05:03;98759.91;;;18.87;78.53
77351;BME280;66420;50.246;14.320;2023-07-24T07:07:48;98743.78;;;19.00;79.58
77351;BME280;66420;50.246;14.320;2023-07-24T07:10:32;98713.97;;;18.90;80.98
77351;BME280;66420;50.246;14.320;2023-07-24T07:13:17;98718.34;;;18.91;78.88
77351;BME280;66420;50.246;14.320;2023-07-24T07:16:01;98726.69;;;18.98;85.15
77351;BME280;66420;50.246;14.320;2023-07-24T07:18:46;98734.28;;;19.04;85.36
77351;BME280;66420;50.246;14.320;2023-07-24T07:21:31;98735.03;;;18.98;83.40
77351;BME280;66420;50.246;14.320;2023-07-24T07:24:15;98745.00;;;19.06;83.40
77351;BME280;66420;50.246;14.320;2023-07-24T07:27:00;98747.81;;;19.13;83.93
77351;BME280;66420;50.246;14.320;2023-07-24T07:29:45;98756.19;;;19.20;84.33
77351;BME280;66420;50.246;14.320;2023-07-24T07:32:30;98745.84;;;19.14;82.68
77351;BME280;66420;50.246;14.320;2023-07-24T07:35:15;98739.63;;;19.34;82.81
77351;BME280;66420;50.246;14.320;2023-07-24T07:38:00;98753.41;;;19.75;81.04
77351;BME280;66420;50.246;14.320;2023-07-24T07:40:45;98764.22;;;19.98;80.64
77351;BME280;66420;50.246;14.320;2023-07-24T07:43:31;98782.94;;;20.11;78.99
77351;BME280;66420;50.246;14.320;2023-07-24T07:46:15;98821.78;;;20.08;77.60
77351;BME280;66420;50.246;14.320;2023-07-24T07:49:00;98833.69;;;20.08;79.37
77351;BME280;66420;50.246;14.320;2023-07-24T07:51:45;98831.78;;;20.16;80.25
77351;BME280;66420;50.246;14.320;2023-07-24T07:54:30;98833.75;;;20.19;78.70
77351;BME280;66420;50.246;14.320;2023-07-24T07:57:15;98822.22;;;20.17;81.40
77351;BME280;66420;50.246;14.320;2023-07-24T08:00:00;98803.19;;;20.12;77.27
77351;BME280;66420;50.246;14.320;2023-07-24T08:02:45;98794.44;;;20.13;77.01
77351;BME280;66420;50.246;14.320;2023-07-24T08:05:30;98795.66;;;20.19;78.38
77351;BME280;66420;50.246;14.320;2023-07-24T08:08:16;98791.75;;;20.31;77.48
77351;BME280;66420;50.246;14.320;2023-07-24T08:11:05;98787.34;;;20.26;77.57
77351;BME280;66420;50.246;14.320;2023-07-24T08:13:50;98789.81;;;20.39;77.09
77351;BME280;66420;50.246;14.320;2023-07-24T08:16:35;98779.91;;;20.52;80.67
77351;BME280;66420;50.246;14.320;2023-07-24T08:19:20;98758.09;;;20.75;74.61
77351;BME280;66420;50.246;14.320;2023-07-24T08:22:04;98750.19;;;20.98;72.64
77351;BME280;66420;50.246;14.320;2023-07-24T08:24:49;98721.56;;;21.15;71.87
77351;BME280;66420;50.246;14.320;2023-07-24T08:27:35;98705.25;;;21.25;72.03
77351;BME280;66420;50.246;14.320;2023-07-24T08:30:20;98697.28;;;21.37;71.10
77351;BME280;66420;50.246;14.320;2023-07-24T08:33:04;98696.44;;;21.51;70.86
77351;BME280;66420;50.246;14.320;2023-07-24T08:36:04;98697.22;;;21.62;68.67
77351;BME280;66420;50.246;14.320;2023-07-24T08:38:49;98674.91;;;21.65;67.56
77351;BME280;66420;50.246;14.320;2023-07-24T08:41:33;98667.63;;;21.96;69.37
77351;BME280;66420;50.246;14.320;2023-07-24T08:44:20;98669.97;;;22.05;69.53
77351;BME280;66420;50.246;14.320;2023-07-24T08:47:09;98653.09;;;22.30;69.29
77351;BME280;66420;50.246;14.320;2023-07-24T08:49:55;98648.19;;;22.48;66.38
77351;BME280;66420;50.246;14.320;2023-07-24T08:52:40;98664.91;;;22.51;68.44
77351;BME280;66420;50.246;14.320;2023-07-24T08:55:26;98682.38;;;22.55;65.58
77351;BME280;66420;50.246;14.320;2023-07-24T08:58:12;98678.84;;;23.03;64.29
77351;BME280;66420;50.246;14.320;2023-07-24T09:00:57;98680.78;;;23.10;63.94
77351;BME280;66420;50.246;14.320;2023-07-24T09:03:42;98680.13;;;23.36;60.94
77351;BME280;66420;50.246;14.320;2023-07-24T09:06:27;98684.38;;;23.48;64.39
77351;BME280;66420;50.246;14.320;2023-07-24T09:09:15;98670.69;;;23.23;61.53
77351;BME280;66420;50.246;14.320;2023-07-24T09:12:00;98671.22;;;23.48;63.12
77351;BME280;66420;50.246;14.320;2023-07-24T09:14:45;98671.81;;;23.66;60.94
77351;BME280;66420;50.246;14.320;2023-07-24T09:17:29;98656.25;;;23.65;59.94
77351;BME280;66420;50.246;14.320;2023-07-24T09:20:14;98647.31;;;23.77;57.17
77351;BME280;66420;50.246;14.320;2023-07-24T09:22:59;98646.50;;;24.07;58.13
77351;BME280;66420;50.246;14.320;2023-07-24T09:25:44;98646.25;;;24.28;58.61
77351;BME280;66420;50.246;14.320;2023-07-24T09:28:29;98641.44;;;24.56;58.44
77351;BME280;66420;50.246;14.320;2023-07-24T09:31:14;98641.38;;;24.83;59.50
77351;BME280;66420;50.246;14.320;2023-07-24T09:33:58;98640.25;;;24.77;61.47
77351;BME280;66420;50.246;14.320;2023-07-24T09:36:44;98641.00;;;24.81;60.54
77351;BME280;66420;50.246;14.320;2023-07-24T09:39:29;98631.66;;;24.91;60.20
77351;BME280;66420;50.246;14.320;2023-07-24T09:42:14;98631.81;;;24.80;58.25
77351;BME280;66420;50.246;14.320;2023-07-24T09:45:00;98635.06;;;24.79;58.15
77351;BME280;66420;50.246;14.320;2023-07-24T09:47:45;98634.38;;;24.94;58.92
77351;BME280;66420;50.246;14.320;2023-07-24T09:50:32;98627.81;;;25.04;57.99
77351;BME280;66420;50.246;14.320;2023-07-24T09:56:14;98622.16;;;25.28;54.92
77351;BME280;66420;50.246;14.320;2023-07-24T09:59:02;98615.28;;;25.32;55.16
77351;BME280;66420;50.246;14.320;2023-07-24T10:01:48;98621.09;;;25.41;57.58
77351;BME280;66420;50.246;14.320;2023-07-24T10:04:34;98614.63;;;25.44;54.78
77351;BME280;66420;50.246;14.320;2023-07-24T10:07:19;98612.34;;;25.59;54.63
77351;BME280;66420;50.246;14.320;2023-07-24T10:10:07;98609.84;;;25.65;48.85
77351;BME280;66420;50.246;14.320;2023-07-24T10:12:52;98616.44;;;25.74;50.95
77351;BME280;66420;50.246;14.320;2023-07-24T10:15:38;98609.97;;;25.77;52.10
77351;BME280;66420;50.246;14.320;2023-07-24T10:18:27;98610.69;;;25.81;54.14
77351;BME280;66420;50.246;14.320;2023-07-24T10:21:13;98614.63;;;25.84;54.07
77351;BME280;66420;50.246;14.320;2023-07-24T10:23:59;98622.16;;;25.87;52.18
77351;BME280;66420;50.246;14.320;2023-07-24T10:26:44;98614.28;;;25.82;54.08
77351;BME280;66420;50.246;14.320;2023-07-24T10:29:28;98614.97;;;25.86;52.54
77351;BME280;66420;50.246;14.320;2023-07-24T10:32:19;98608.06;;;25.90;50.71
77351;BME280;66420;50.246;14.320;2023-07-24T10:35:08;98608.91;;;26.07;51.83
77351;BME280;66420;50.246;14.320;2023-07-24T10:37:59;98613.03;;;26.19;48.05
77351;BME280;66420;50.246;14.320;2023-07-24T10:40:47;98600.91;;;26.25;47.51
77351;BME280;66420;50.246;14.320;2023-07-24T10:43:46;98598.91;;;26.26;47.14
77351;BME280;66420;50.246;14.320;2023-07-24T10:46:41;98604.03;;;26.27;47.80
77351;BME280;66420;50.246;14.320;2023-07-24T10:49:29;98599.94;;;26.32;45.09
77351;BME280;66420;50.246;14.320;2023-07-24T10:52:14;98605.44;;;26.35;44.28
77351;BME280;66420;50.246;14.320;2023-07-24T10:55:03;98609.16;;;26.49;43.50
77351;BME280;66420;50.246;14.320;2023-07-24T10:57:48;98600.97;;;26.54;42.26
77351;BME280;66420;50.246;14.320;2023-07-24T11:00:32;98604.06;;;26.60;43.86
77351;BME280;66420;50.246;14.320;2023-07-24T11:03:17;98596.84;;;26.59;43.50
77351;BME280;66420;50.246;14.320;2023-07-24T11:06:02;98596.69;;;26.66;43.92
77351;BME280;66420;50.246;14.320;2023-07-24T11:08:55;98571.44;;;26.66;42.78
77351;BME280;66420;50.246;14.320;2023-07-24T11:11:40;98581.44;;;26.67;42.76
77351;BME280;66420;50.246;14.320;2023-07-24T11:14:25;98571.44;;;26.66;43.57
77351;BME280;66420;50.246;14.320;2023-07-24T11:17:10;98571.34;;;26.69;43.40
77351;BME280;66420;50.246;14.320;2023-07-24T11:20:05;98558.88;;;26.70;43.32
77351;BME280;66420;50.246;14.320;2023-07-24T11:22:50;98561.31;;;26.68;43.18
77351;BME280;66420;50.246;14.320;2023-07-24T11:25:34;98557.34;;;26.82;43.99
77351;BME280;66420;50.246;14.320;2023-07-24T11:28:19;98557.00;;;26.96;43.22
77351;BME280;66420;50.246;14.320;2023-07-24T11:31:04;98554.44;;;27.02;42.80
77351;BME280;66420;50.246;14.320;2023-07-24T11:33:49;98555.25;;;27.02;43.40
77351;BME280;66420;50.246;14.320;2023-07-24T11:36:34;98557.56;;;26.75;44.11
77351;BME280;66420;50.246;14.320;2023-07-24T11:39:23;98541.84;;;26.77;44.83
77351;BME280;66420;50.246;14.320;2023-07-24T11:42:08;98540.88;;;26.84;44.56
77351;BME280;66420;50.246;14.320;2023-07-24T11:44:53;98541.41;;;26.79;44.92
77351;BME280;66420;50.246;14.320;2023-07-24T11:47:46;98535.19;;;26.87;45.05
77351;BME280;66420;50.246;14.320;2023-07-24T11:50:42;98523.44;;;27.05;44.89
77351;BME280;66420;50.246;14.320;2023-07-24T11:53:31;98527.84;;;27.06;44.04
77351;BME280;66420;50.246;14.320;2023-07-24T11:56:17;98521.41;;;26.93;44.96
77351;BME280;66420;50.246;14.320;2023-07-24T11:59:11;98511.22;;;26.83;45.49
77351;BME280;66420;50.246;14.320;2023-07-24T12:01:56;98493.53;;;26.70;46.29
77351;BME280;66420;50.246;14.320;2023-07-24T12:04:41;98493.16;;;26.68;46.38
77351;BME280;66420;50.246;14.320;2023-07-24T12:07:33;98490.19;;;26.75;46.44
77351;BME280;66420;50.246;14.320;2023-07-24T12:10:26;98477.19;;;26.81;46.50
77351;BME280;66420;50.246;14.320;2023-07-24T12:13:13;98481.50;;;26.85;46.80
77351;BME280;66420;50.246;14.320;2023-07-24T12:15:58;98476.09;;;27.32;47.35
77351;BME280;66420;50.246;14.320;2023-07-24T12:18:43;98466.13;;;27.44;45.45
77351;BME280;66420;50.246;14.320;2023-07-24T12:21:28;98457.06;;;27.53;45.38
77351;BME280;66420;50.246;14.320;2023-07-24T12:24:12;98445.66;;;27.44;45.77
77351;BME280;66420;50.246;14.320;2023-07-24T12:26:57;98453.09;;;27.75;45.55
77351;BME280;66420;50.246;14.320;2023-07-24T12:29:41;98435.97;;;28.20;45.50
77351;BME280;66420;50.246;14.320;2023-07-24T12:32:26;98420.47;;;28.38;45.43
77351;BME280;66420;50.246;14.320;2023-07-24T12:35:11;98409.56;;;28.40;45.24
77351;BME280;66420;50.246;14.320;2023-07-24T12:37:56;98399.16;;;28.28;44.22
77351;BME280;66420;50.246;14.320;2023-07-24T12:40:40;98387.09;;;28.27;45.34
77351;BME280;66420;50.246;14.320;2023-07-24T12:43:25;98383.22;;;28.12;43.77
77351;BME280;66420;50.246;14.320;2023-07-24T12:46:10;98374.06;;;28.08;44.16
77351;BME280;66420;50.246;14.320;2023-07-24T12:48:54;98376.34;;;28.00;44.97
77351;BME280;66420;50.246;14.320;2023-07-24T12:51:39;98371.19;;;27.99;44.61
77351;BME280;66420;50.246;14.320;2023-07-24T12:54:23;98373.59;;;27.75;44.35
77351;BME280;66420;50.246;14.320;2023-07-24T12:57:08;98362.03;;;27.60;44.04
77351;BME280;66420;50.246;14.320;2023-07-24T12:59:53;98364.19;;;27.56;44.63
77351;BME280;66420;50.246;14.320;2023-07-24T13:02:38;98374.97;;;27.58;44.50
77351;BME280;66420;50.246;14.320;2023-07-24T13:05:23;98362.72;;;27.52;45.56
77351;BME280;66420;50.246;14.320;2023-07-24T13:08:08;98363.63;;;27.49;44.83
77351;BME280;66420;50.246;14.320;2023-07-24T13:10:53;98360.91;;;27.45;44.10
77351;BME280;66420;50.246;14.320;2023-07-24T13:13:37;98361.78;;;27.42;43.00
77351;BME280;66420;50.246;14.320;2023-07-24T13:16:22;98380.00;;;27.38;42.94
77351;BME280;66420;50.246;14.320;2023-07-24T13:19:07;98374.16;;;27.32;44.25
77351;BME280;66420;50.246;14.320;2023-07-24T13:21:51;98362.91;;;27.32;43.71
77351;BME280;66420;50.246;14.320;2023-07-24T13:24:36;98352.72;;;27.25;44.20
77351;BME280;66420;50.246;14.320;2023-07-24T13:27:21;98354.16;;;27.30;44.38
77351;BME280;66420;50.246;14.320;2023-07-24T13:30:06;98349.34;;;27.30;43.51
77351;BME280;66420;50.246;14.320;2023-07-24T13:32:50;98356.19;;;27.29;43.08
77351;BME280;66420;50.246;14.320;2023-07-24T13:35:35;98366.19;;;27.30;43.00
77351;BME280;66420;50.246;14.320;2023-07-24T13:38:20;98372.38;;;27.25;42.70
77351;BME280;66420;50.246;14.320;2023-07-24T13:41:05;98386.41;;;27.25;43.09
77351;BME280;66420;50.246;14.320;2023-07-24T13:43:50;98445.69;;;26.89;44.74
77351;BME280;66420;50.246;14.320;2023-07-24T13:46:35;98439.63;;;25.13;51.26
77351;BME280;66420;50.246;14.320;2023-07-24T13:49:20;98435.09;;;24.40;55.42
77351;BME280;66420;50.246;14.320;2023-07-24T13:52:05;98421.03;;;24.44;56.33
77351;BME280;66420;50.246;14.320;2023-07-24T13:54:50;98426.94;;;24.03;57.73
77351;BME280;66420;50.246;14.320;2023-07-24T13:57:35;98427.88;;;23.96;58.74
77351;BME280;66420;50.246;14.320;2023-07-24T14:00:20;98434.03;;;23.88;59.33
77351;BME280;66420;50.246;14.320;2023-07-24T14:03:04;98437.53;;;23.92;59.66
77351;BME280;66420;50.246;14.320;2023-07-24T14:05:49;98440.03;;;23.86;59.27
77351;BME280;66420;50.246;14.320;2023-07-24T14:08:33;98446.47;;;23.83;59.38
77351;BME280;66420;50.246;14.320;2023-07-24T14:11:18;98436.13;;;23.80;59.40
77351;BME280;66420;50.246;14.320;2023-07-24T14:14:03;98438.97;;;23.76;59.59
77351;BME280;66420;50.246;14.320;2023-07-24T14:16:48;98441.13;;;23.65;60.34
77351;BME280;66420;50.246;14.320;2023-07-24T14:19:33;98451.09;;;23.39;60.91
77351;BME280;66420;50.246;14.320;2023-07-24T14:22:18;98451.94;;;23.36;60.27
77351;BME280;66420;50.246;14.320;2023-07-24T14:25:03;98448.44;;;23.59;60.98
77351;BME280;66420;50.246;14.320;2023-07-24T14:27:48;98448.38;;;23.63;61.55